Cody, WY (82414)

8:06 PM MST on February 24, 2017 (GMT -0700)
Valley View | | Change Station

Elev 5166 ft 44.51 °N, 109.10 °W | Updated 3 minutes ago

Light Snow
Light Snow Mist
21.7 °F
Feels Like 22 °F
N
2.0
Wind Variable Wind from NNW
Gusts 4.0 mph

Today
High -- | Low -- °F
--% Chance of Precip.
Yesterday
High -- | Low -- °F
Precip. -- in
Pressure 30.16 in
Visibility 1.8 miles
Clouds Mostly Cloudy 1200 ft
Overcast 1800 ft
Windchill 22 °F
Dew Point 20 °F
Humidity 91%
Rainfall 0.00 in
Snow Depth Not available.
7:01 AM 5:57 PM
Waning Crescent, 3% visible
METAR KCOD 250256Z AUTO 36006KT 1 3/4SM -SN BR BKN012 OVC018 M05/M07 A2998 RMK AO2 SLP213 P0000 60000 T10501067 51010 FZRANO
Pressure 30.16 in
Visibility 1.8 miles
Clouds Mostly Cloudy 1200 ft
Overcast 1800 ft
Windchill 22 °F
Dew Point 20 °F
Humidity 91%
Rainfall 0.00 in
Snow Depth Not available.
7:01 AM 5:57 PM
Waning Crescent, 3% visible
METAR KCOD 250256Z AUTO 36006KT 1 3/4SM -SN BR BKN012 OVC018 M05/M07 A2998 RMK AO2 SLP213 P0000 60000 T10501067 51010 FZRANO

Get Your Daily Forecast Email!

Thanks for signing up!

Be on the lookout for a verification email in your inbox.

You'll start receiving the daily forecast at 8 AM.

×

10-Day Weather Forecast

Almanac

Astronomy

Feb. 24, 2017 Rise Set
Actual Time
Civil Twilight
Nautical Twilight
Astronomical Twilight
Moon
Length of Visible Light
Length of Day
Tomorrow will be .
, % of the Moon is Illuminated

Today's Extremes

State Highs State Lows

Community

WunderPhotos

Upload Photos

1,962,540 photos uploaded!

WunderBlog® & News

Nearby

Air Quality

  Air Quality AQ Index Pollutant
Not available.

Snow Depth

Station Depth Elevation

Earthquake Activity

City Distance Mag. Time & Date
Minimum magnitude displayed is 2.5.

Coastal Water Temperatures

Place Temperature

Stations

Nearby Weather Stations

Station Location Temp. Windchill Dew Point Humidity Wind Precip. Elev Updated Type
                   

Watches & Warnings

There are currently no watches in effect.